createdAt,value
2017-12-04T00:00:06.445Z,7.18
2017-12-04T00:00:32.589Z,7.17
2017-12-04T00:00:58.708Z,7.29
2017-12-04T00:01:24.833Z,7.31
2017-12-04T00:01:50.957Z,7.2
2017-12-04T00:02:17.070Z,7.17
2017-12-04T00:02:43.190Z,7.18
2017-12-04T00:03:09.318Z,7.13
2017-12-04T00:03:35.438Z,6.97
2017-12-04T00:04:01.578Z,6.99
2017-12-04T00:04:27.703Z,7.15
2017-12-04T00:04:53.840Z,7.02
2017-12-04T00:05:19.965Z,7.03
2017-12-04T00:05:46.080Z,7.11
2017-12-04T00:06:12.197Z,7.13
2017-12-04T00:06:38.323Z,7.17
2017-12-04T00:07:04.438Z,7.13
2017-12-04T00:07:30.560Z,7.07
2017-12-04T00:07:56.685Z,7.07
2017-12-04T00:08:22.822Z,7.1
2017-12-04T00:08:48.947Z,7.15
2017-12-04T00:09:15.062Z,7.18
2017-12-04T00:09:41.210Z,7.06
2017-12-04T00:10:07.306Z,7.13
2017-12-04T00:10:33.423Z,7
2017-12-04T00:10:59.546Z,7.1
2017-12-04T00:11:25.671Z,7.1
2017-12-04T00:11:51.788Z,7.1
2017-12-04T00:12:17.909Z,7.07
2017-12-04T00:12:44.028Z,7.07
2017-12-04T00:13:10.153Z,7.06
2017-12-04T00:13:36.291Z,6.95
2017-12-04T00:14:02.424Z,6.99
2017-12-04T00:14:28.548Z,6.96
2017-12-04T00:14:54.674Z,6.88
2017-12-04T00:15:20.797Z,6.95
2017-12-04T00:15:46.919Z,6.87
2017-12-04T00:16:13.081Z,6.96
2017-12-04T00:16:39.159Z,6.99
2017-12-04T00:17:05.281Z,6.99
2017-12-04T00:17:31.419Z,6.97
2017-12-04T00:17:57.539Z,6.93
2017-12-04T00:18:23.662Z,6.97
2017-12-04T00:18:49.782Z,7.03
2017-12-04T00:19:15.903Z,6.95
2017-12-04T00:19:42.043Z,7
2017-12-04T00:20:08.189Z,6.92
2017-12-04T00:20:34.308Z,6.99
2017-12-04T00:21:00.436Z,6.93
2017-12-04T00:21:26.558Z,6.95
2017-12-04T00:21:52.678Z,6.88
2017-12-04T00:22:18.791Z,7.03
2017-12-04T00:22:44.909Z,7
2017-12-04T00:23:11.032Z,6.84
2017-12-04T00:23:37.155Z,6.84
2017-12-04T00:24:03.273Z,6.92
2017-12-04T00:24:29.396Z,6.87
2017-12-04T00:24:55.511Z,7
2017-12-04T00:25:21.629Z,7.02
2017-12-04T00:25:47.748Z,6.97
2017-12-04T00:26:13.894Z,6.96
2017-12-04T00:26:40.008Z,7
2017-12-04T00:27:06.129Z,7.05
2017-12-04T00:27:32.252Z,7
2017-12-04T00:27:58.368Z,6.93
2017-12-04T00:28:24.493Z,6.99
2017-12-04T00:28:50.612Z,6.92
2017-12-04T00:29:16.736Z,6.87
2017-12-04T00:29:42.883Z,6.99
2017-12-04T00:30:08.999Z,6.96
2017-12-04T00:30:35.118Z,7
2017-12-04T00:31:01.243Z,6.92
2017-12-04T00:31:27.358Z,6.96
2017-12-04T00:31:53.482Z,6.93
2017-12-04T00:32:19.608Z,7.05
2017-12-04T00:32:45.728Z,6.99
2017-12-04T00:33:11.845Z,6.96
2017-12-04T00:33:38.554Z,7
2017-12-04T00:34:04.671Z,6.96
2017-12-04T00:34:30.799Z,6.97
2017-12-04T00:34:56.921Z,6.96
2017-12-04T00:35:23.072Z,6.95
2017-12-04T00:35:49.215Z,6.96
2017-12-04T00:36:15.325Z,6.97
2017-12-04T00:36:41.441Z,6.96
2017-12-04T00:37:07.567Z,6.97
2017-12-04T00:37:33.686Z,6.99
2017-12-04T00:37:59.812Z,6.96
2017-12-04T00:38:25.933Z,7
2017-12-04T00:38:52.051Z,7
2017-12-04T00:39:18.199Z,7.11
2017-12-04T00:39:44.334Z,7.05
2017-12-04T00:40:10.481Z,7.06
2017-12-04T00:40:36.608Z,7.05
2017-12-04T00:41:02.724Z,7.03
2017-12-04T00:41:28.849Z,7.03
2017-12-04T00:41:54.967Z,6.97
2017-12-04T00:42:21.083Z,6.99
2017-12-04T00:42:47.199Z,7.02
2017-12-04T00:43:13.316Z,7.07
2017-12-04T00:43:39.445Z,7.13
2017-12-04T00:44:05.564Z,7.15
2017-12-04T00:44:31.686Z,7.14
2017-12-04T00:44:57.803Z,7.11
2017-12-04T00:45:23.919Z,7.07
2017-12-04T00:45:50.042Z,7.15
2017-12-04T00:46:16.167Z,7.13
2017-12-04T00:46:42.287Z,7.13
2017-12-04T00:47:08.402Z,7.15
2017-12-04T00:47:34.527Z,7.24
2017-12-04T00:48:00.645Z,7.14
2017-12-04T00:48:26.768Z,7.15
2017-12-04T00:48:52.885Z,7.18
2017-12-04T00:49:19.006Z,7.06
2017-12-04T00:49:45.134Z,7.06
2017-12-04T00:50:11.253Z,7.1
2017-12-04T00:50:37.373Z,7.05
2017-12-04T00:51:03.490Z,7.11
2017-12-04T00:51:29.615Z,7.05
2017-12-04T00:51:55.747Z,7.07
2017-12-04T00:52:21.866Z,7.11
2017-12-04T00:52:47.991Z,7.1
2017-12-04T00:53:14.107Z,7.11
2017-12-04T00:53:40.231Z,7.05
2017-12-04T00:54:06.350Z,7.03
2017-12-04T00:54:32.471Z,7.1
2017-12-04T00:54:58.586Z,7.05
2017-12-04T00:55:24.710Z,7.05
2017-12-04T00:55:50.834Z,7.1
2017-12-04T00:56:16.963Z,7.1
2017-12-04T00:56:43.073Z,7.11
2017-12-04T00:57:09.215Z,7.11
2017-12-04T00:57:35.337Z,7.15
2017-12-04T00:58:01.451Z,7.23
2017-12-04T00:58:27.579Z,7.18
2017-12-04T00:58:53.694Z,7.17
2017-12-04T00:59:19.824Z,7.25
2017-12-04T00:59:45.943Z,7.25
2017-12-04T01:00:12.086Z,7.28
2017-12-04T01:00:38.196Z,7.21
2017-12-04T01:01:04.342Z,7.21
2017-12-04T01:01:30.467Z,7.13
2017-12-04T01:01:56.594Z,7.13
2017-12-04T01:02:22.712Z,7.23
2017-12-04T01:02:48.828Z,7.2
2017-12-04T01:03:14.948Z,7.11
2017-12-04T01:03:41.072Z,7.14
2017-12-04T01:04:07.192Z,7.2
2017-12-04T01:04:33.317Z,7.15
2017-12-04T01:04:59.443Z,7.06
2017-12-04T01:05:26.999Z,7.06
2017-12-04T01:05:53.908Z,7.11
2017-12-04T01:06:20.029Z,7.15
2017-12-04T01:06:46.168Z,7.05
2017-12-04T01:07:12.292Z,7.2
2017-12-04T01:07:38.414Z,7.17
2017-12-04T01:08:04.533Z,7.15
2017-12-04T01:08:30.660Z,7.1
2017-12-04T01:08:56.775Z,7.17
2017-12-04T01:09:22.900Z,7.18
2017-12-04T01:09:49.022Z,7.18
2017-12-04T01:10:15.138Z,7.17
2017-12-04T01:10:41.283Z,7.2
2017-12-04T01:11:07.427Z,7.18
2017-12-04T01:11:33.544Z,7.2
2017-12-04T01:11:59.670Z,7.14
2017-12-04T01:12:25.785Z,7.13
2017-12-04T01:12:51.911Z,7.11
2017-12-04T01:13:18.027Z,7.1
2017-12-04T01:13:44.152Z,7.1
2017-12-04T01:14:10.265Z,7.17
2017-12-04T01:14:36.387Z,7.14
2017-12-04T01:15:02.511Z,7.15
2017-12-04T01:15:28.629Z,7.07
2017-12-04T01:15:54.775Z,7.14
2017-12-04T01:16:20.892Z,7.13
2017-12-04T01:16:47.018Z,7.17
2017-12-04T01:17:13.137Z,7.21
2017-12-04T01:17:39.255Z,7.13
2017-12-04T01:18:05.380Z,7.18
2017-12-04T01:18:31.502Z,7.15
2017-12-04T01:18:57.618Z,7.11
2017-12-04T01:19:23.746Z,7.11
2017-12-04T01:19:49.859Z,7.11
2017-12-04T01:20:15.980Z,7.21
2017-12-04T01:20:42.116Z,7.14
2017-12-04T01:21:08.246Z,6.99
2017-12-04T01:21:34.367Z,7.1
2017-12-04T01:22:00.504Z,7.11
2017-12-04T01:22:26.623Z,7.1
2017-12-04T01:22:52.744Z,7.13
2017-12-04T01:23:18.858Z,7.23
2017-12-04T01:23:44.979Z,7.21
2017-12-04T01:24:11.110Z,7.32
2017-12-04T01:24:37.230Z,7.25
2017-12-04T01:25:03.374Z,7.33
2017-12-04T01:25:29.509Z,7.29
2017-12-04T01:25:55.632Z,7.31
2017-12-04T01:26:21.753Z,7.18
2017-12-04T01:26:47.866Z,7.23
2017-12-04T01:27:13.993Z,7.2
2017-12-04T01:27:40.129Z,7.23
2017-12-04T01:28:06.247Z,7.06
2017-12-04T01:28:32.364Z,7.17
2017-12-04T01:28:58.494Z,7.11
2017-12-04T01:29:24.612Z,7.07
2017-12-04T01:29:50.738Z,7.07
2017-12-04T01:30:16.855Z,7.18
2017-12-04T01:30:42.978Z,7.15
2017-12-04T01:31:09.100Z,7.18
2017-12-04T01:31:35.220Z,7.18
2017-12-04T01:32:01.345Z,7.24
2017-12-04T01:32:27.458Z,7.15
2017-12-04T01:32:53.591Z,7.21
2017-12-04T01:33:19.700Z,7.2
2017-12-04T01:33:45.826Z,7.28
2017-12-04T01:34:11.950Z,7.18
2017-12-04T01:34:38.068Z,7.24
2017-12-04T01:35:04.201Z,7.29
2017-12-04T01:35:30.311Z,7.31
2017-12-04T01:35:56.427Z,7.32
2017-12-04T01:36:22.571Z,7.4
2017-12-04T01:36:48.687Z,7.45
2017-12-04T01:37:14.812Z,7.25
2017-12-04T01:37:40.938Z,7.29
2017-12-04T01:38:07.052Z,7.29
2017-12-04T01:38:33.201Z,7.28
2017-12-04T01:38:59.341Z,7.28
2017-12-04T01:39:25.462Z,7.31
2017-12-04T01:39:51.599Z,7.21
2017-12-04T01:40:17.781Z,7.31
2017-12-04T01:40:43.839Z,7.28
2017-12-04T01:41:09.959Z,7.45
2017-12-04T01:41:36.102Z,7.42
2017-12-04T01:42:02.219Z,7.51
2017-12-04T01:42:28.340Z,7.4
2017-12-04T01:42:54.500Z,7.45
2017-12-04T01:43:20.584Z,7.45
2017-12-04T01:43:46.720Z,7.42
2017-12-04T01:44:12.865Z,7.47
2017-12-04T01:44:38.986Z,7.51
2017-12-04T01:45:05.103Z,7.51
2017-12-04T01:45:31.226Z,7.53
2017-12-04T01:45:57.346Z,7.58
2017-12-04T01:46:23.460Z,7.6
2017-12-04T01:46:49.584Z,7.54
2017-12-04T01:47:15.711Z,7.67
2017-12-04T01:47:41.822Z,7.61
2017-12-04T01:48:07.950Z,7.7
2017-12-04T01:48:34.066Z,7.58
2017-12-04T01:49:00.212Z,7.67
2017-12-04T01:49:26.335Z,7.61
2017-12-04T01:49:52.451Z,7.7
2017-12-04T01:50:18.578Z,7.67
2017-12-04T01:50:44.697Z,7.6
2017-12-04T01:51:10.813Z,7.66
2017-12-04T01:51:36.932Z,7.63
2017-12-04T01:52:03.080Z,7.58
2017-12-04T01:52:29.201Z,7.53
2017-12-04T01:52:55.374Z,7.56
2017-12-04T01:53:21.459Z,7.57
2017-12-04T01:53:47.574Z,7.58
2017-12-04T01:54:13.703Z,7.7
2017-12-04T01:54:39.818Z,7.63
2017-12-04T01:55:05.942Z,7.57
2017-12-04T01:55:32.069Z,7.6
2017-12-04T01:55:58.183Z,7.63
2017-12-04T01:56:24.308Z,7.58
2017-12-04T01:56:50.429Z,7.69
2017-12-04T01:57:16.545Z,7.56
2017-12-04T01:57:42.672Z,7.56
2017-12-04T01:58:08.807Z,7.5
2017-12-04T01:58:34.927Z,7.54
2017-12-04T01:59:01.054Z,7.58
2017-12-04T01:59:27.163Z,7.6
2017-12-04T01:59:53.287Z,7.56
2017-12-04T02:00:19.412Z,7.58
2017-12-04T02:00:45.536Z,7.51
2017-12-04T02:01:11.660Z,7.61
2017-12-04T02:01:37.794Z,7.63
2017-12-04T02:02:03.918Z,7.67
2017-12-04T02:02:30.039Z,7.56
2017-12-04T02:02:56.162Z,7.61
2017-12-04T02:03:22.280Z,7.53
2017-12-04T02:03:48.395Z,7.61
2017-12-04T02:04:14.520Z,7.66
2017-12-04T02:04:40.643Z,7.69
2017-12-04T02:05:06.760Z,7.58
2017-12-04T02:05:32.882Z,7.7
2017-12-04T02:05:59.008Z,7.63
2017-12-04T02:06:25.130Z,7.66
2017-12-04T02:06:51.269Z,7.66
2017-12-04T02:07:17.414Z,7.69
2017-12-04T02:07:43.529Z,7.69
2017-12-04T02:08:09.657Z,7.7
2017-12-04T02:08:35.774Z,7.76
2017-12-04T02:09:01.892Z,7.75
2017-12-04T02:09:28.015Z,7.67
2017-12-04T02:09:54.140Z,7.67
2017-12-04T02:10:20.256Z,7.66
2017-12-04T02:10:46.375Z,7.69
2017-12-04T02:11:12.501Z,7.67
2017-12-04T02:11:38.621Z,7.76
2017-12-04T02:12:04.739Z,7.72
2017-12-04T02:12:30.865Z,7.69
2017-12-04T02:12:56.983Z,7.61
2017-12-04T02:13:23.130Z,7.7
2017-12-04T02:13:49.246Z,7.67
2017-12-04T02:14:15.371Z,7.77
2017-12-04T02:14:41.503Z,7.66
2017-12-04T02:15:07.618Z,7.66
2017-12-04T02:15:33.733Z,7.69
2017-12-04T02:15:59.855Z,7.57
2017-12-04T02:16:25.977Z,7.51
2017-12-04T02:16:52.105Z,7.53
2017-12-04T02:17:18.261Z,7.4
2017-12-04T02:17:44.381Z,7.47
2017-12-04T02:18:10.507Z,7.58
2017-12-04T02:18:36.617Z,7.56
2017-12-04T02:19:02.742Z,7.53
2017-12-04T02:19:28.879Z,7.48
2017-12-04T02:19:55.000Z,7.54
2017-12-04T02:20:21.133Z,7.5
2017-12-04T02:20:47.255Z,7.45
2017-12-04T02:21:13.370Z,7.47
2017-12-04T02:21:39.492Z,7.5
2017-12-04T02:22:05.620Z,7.48
2017-12-04T02:22:31.737Z,7.5
2017-12-04T02:22:57.866Z,7.6
2017-12-04T02:23:23.996Z,7.54
2017-12-04T02:23:50.119Z,7.58
2017-12-04T02:24:16.262Z,7.54
2017-12-04T02:24:42.378Z,7.47
2017-12-04T02:25:08.501Z,7.53
2017-12-04T02:25:34.636Z,7.47
2017-12-04T02:26:00.764Z,7.43
2017-12-04T02:26:26.879Z,7.43
2017-12-04T02:26:53.000Z,7.45
2017-12-04T02:27:19.127Z,7.51
2017-12-04T02:27:45.243Z,7.38
2017-12-04T02:28:11.362Z,7.47
2017-12-04T02:28:37.485Z,7.42
2017-12-04T02:29:03.607Z,7.5
2017-12-04T02:29:29.731Z,7.5
2017-12-04T02:29:55.851Z,7.6
2017-12-04T02:30:21.975Z,7.58
2017-12-04T02:30:48.098Z,7.56
2017-12-04T02:31:14.215Z,7.47
2017-12-04T02:31:40.334Z,7.47
2017-12-04T02:32:06.466Z,7.53
2017-12-04T02:32:32.579Z,7.54
2017-12-04T02:32:58.695Z,7.54
2017-12-04T02:33:24.824Z,7.57
2017-12-04T02:33:50.941Z,7.57
2017-12-04T02:34:17.058Z,7.63
2017-12-04T02:34:43.182Z,7.57
2017-12-04T02:35:09.320Z,7.58
2017-12-04T02:35:35.449Z,7.57
2017-12-04T02:36:01.588Z,7.58
2017-12-04T02:36:27.706Z,7.56
2017-12-04T02:36:53.832Z,7.48
2017-12-04T02:37:19.953Z,7.6
2017-12-04T02:37:46.069Z,7.53
2017-12-04T02:38:12.189Z,7.56
2017-12-04T02:38:38.307Z,7.58
2017-12-04T02:39:04.424Z,7.58
2017-12-04T02:39:30.545Z,7.57
2017-12-04T02:39:56.687Z,7.6
2017-12-04T02:40:22.806Z,7.53
2017-12-04T02:40:48.954Z,7.66
2017-12-04T02:41:15.121Z,7.58
2017-12-04T02:41:41.254Z,7.72
2017-12-04T02:42:07.373Z,7.61
2017-12-04T02:42:33.498Z,7.63
2017-12-04T02:42:59.610Z,7.53
2017-12-04T02:43:25.738Z,7.66
2017-12-04T02:43:51.853Z,7.67
2017-12-04T02:44:17.978Z,7.7
2017-12-04T02:44:44.089Z,7.67
2017-12-04T02:45:10.212Z,7.6
2017-12-04T02:45:36.339Z,7.61
2017-12-04T02:46:02.465Z,7.53
2017-12-04T02:46:28.589Z,7.53
2017-12-04T02:46:54.703Z,7.66
2017-12-04T02:47:20.828Z,7.57
2017-12-04T02:47:46.969Z,7.63
2017-12-04T02:48:13.088Z,7.54
2017-12-04T02:48:39.212Z,7.73
2017-12-04T02:49:05.329Z,7.67
2017-12-04T02:49:31.456Z,7.67
2017-12-04T02:49:57.576Z,7.57
2017-12-04T02:50:23.690Z,7.54
2017-12-04T02:50:49.810Z,7.58
2017-12-04T02:51:15.935Z,7.61
2017-12-04T02:51:42.055Z,7.56
2017-12-04T02:52:08.174Z,7.7
2017-12-04T02:52:34.301Z,7.47
2017-12-04T02:53:00.418Z,7.51
2017-12-04T02:53:26.542Z,7.5
2017-12-04T02:53:52.658Z,7.6
2017-12-04T02:54:18.777Z,7.4
2017-12-04T02:54:44.899Z,7.42
2017-12-04T02:55:11.021Z,7.4
2017-12-04T02:55:37.165Z,7.35
2017-12-04T02:56:03.285Z,7.4
2017-12-04T02:56:29.412Z,7.45
2017-12-04T02:56:55.537Z,7.48
2017-12-04T02:57:21.653Z,7.38
2017-12-04T02:57:47.772Z,7.42
2017-12-04T02:58:13.894Z,7.48
2017-12-04T02:58:40.019Z,7.42
2017-12-04T02:59:06.136Z,7.47
2017-12-04T02:59:32.264Z,7.47
2017-12-04T02:59:58.387Z,7.51
2017-12-04T03:00:24.513Z,7.42
2017-12-04T03:00:50.626Z,7.45
2017-12-04T03:01:16.745Z,7.43
2017-12-04T03:01:42.870Z,7.4
2017-12-04T03:02:08.992Z,7.4
2017-12-04T03:02:35.108Z,7.45
2017-12-04T03:03:01.227Z,7.42
2017-12-04T03:03:27.351Z,7.5
2017-12-04T03:03:53.470Z,7.45
2017-12-04T03:04:19.604Z,7.53
2017-12-04T03:04:45.746Z,7.42
2017-12-04T03:05:11.868Z,7.54
2017-12-04T03:05:38.001Z,7.53
2017-12-04T03:06:04.122Z,7.51
2017-12-04T03:06:30.240Z,7.47
2017-12-04T03:06:56.388Z,7.43
2017-12-04T03:07:22.528Z,7.43
2017-12-04T03:07:48.654Z,7.4
2017-12-04T03:08:14.774Z,7.38
2017-12-04T03:08:40.896Z,7.48
2017-12-04T03:09:07.017Z,7.31
2017-12-04T03:09:33.129Z,7.36
2017-12-04T03:09:59.245Z,7.39
2017-12-04T03:10:25.366Z,7.45
2017-12-04T03:10:51.492Z,7.39
2017-12-04T03:11:17.609Z,7.45
2017-12-04T03:11:43.745Z,7.45
2017-12-04T03:12:09.868Z,7.45
2017-12-04T03:12:35.986Z,7.43
2017-12-04T03:13:02.106Z,7.45
2017-12-04T03:13:28.225Z,7.45
2017-12-04T03:13:54.354Z,7.42
2017-12-04T03:14:20.473Z,7.42
2017-12-04T03:14:46.600Z,7.4
2017-12-04T03:15:12.722Z,7.45
2017-12-04T03:15:38.843Z,7.43
2017-12-04T03:16:04.962Z,7.38
2017-12-04T03:16:31.076Z,7.43
2017-12-04T03:16:57.196Z,7.42
2017-12-04T03:17:23.324Z,7.43
2017-12-04T03:17:49.467Z,7.43
2017-12-04T03:18:15.587Z,7.48
2017-12-04T03:18:41.704Z,7.5
2017-12-04T03:19:07.827Z,7.43
2017-12-04T03:19:33.951Z,7.48
2017-12-04T03:20:00.070Z,7.47
2017-12-04T03:20:26.206Z,7.45
2017-12-04T03:20:52.330Z,7.35
2017-12-04T03:21:18.452Z,7.43
2017-12-04T03:21:44.570Z,7.48
2017-12-04T03:22:10.694Z,7.48
2017-12-04T03:22:36.810Z,7.48
2017-12-04T03:23:02.927Z,7.56
2017-12-04T03:23:29.069Z,7.56
2017-12-04T03:23:55.191Z,7.53
2017-12-04T03:24:21.313Z,7.53
2017-12-04T03:24:47.435Z,7.48
2017-12-04T03:25:13.588Z,7.43
2017-12-04T03:25:39.703Z,7.42
2017-12-04T03:26:05.823Z,7.42
2017-12-04T03:26:31.943Z,7.43
2017-12-04T03:26:58.064Z,7.39
2017-12-04T03:27:24.184Z,7.47
2017-12-04T03:27:50.323Z,7.4
2017-12-04T03:28:16.439Z,7.43
2017-12-04T03:28:42.568Z,7.42
2017-12-04T03:29:08.686Z,7.47
2017-12-04T03:29:34.824Z,7.42
2017-12-04T03:30:00.962Z,7.48
2017-12-04T03:30:27.088Z,7.45
2017-12-04T03:30:53.207Z,7.39
2017-12-04T03:31:19.343Z,7.47
2017-12-04T03:31:45.457Z,7.39
2017-12-04T03:32:11.597Z,7.45
2017-12-04T03:32:37.714Z,7.48
2017-12-04T03:33:03.841Z,7.5
2017-12-04T03:33:29.962Z,7.53
2017-12-04T03:33:56.080Z,7.48
2017-12-04T03:34:22.195Z,7.5
2017-12-04T03:34:48.320Z,7.56
2017-12-04T03:35:14.444Z,7.47
2017-12-04T03:35:40.561Z,7.42
2017-12-04T03:36:06.687Z,7.38
2017-12-04T03:36:32.826Z,7.42
2017-12-04T03:36:58.951Z,7.53
2017-12-04T03:37:25.086Z,7.53
2017-12-04T03:37:51.211Z,7.54
2017-12-04T03:38:17.332Z,7.5
2017-12-04T03:38:43.444Z,7.53
2017-12-04T03:39:09.571Z,7.51
2017-12-04T03:39:35.690Z,7.54
2017-12-04T03:40:01.811Z,7.56
2017-12-04T03:40:27.937Z,7.63
2017-12-04T03:40:54.050Z,7.58
2017-12-04T03:41:20.169Z,7.58
2017-12-04T03:41:46.295Z,7.58
2017-12-04T03:42:12.417Z,7.69
2017-12-04T03:42:38.533Z,7.69
2017-12-04T03:43:04.660Z,7.61
2017-12-04T03:43:30.777Z,7.7
2017-12-04T03:43:56.895Z,7.72
2017-12-04T03:44:23.042Z,7.61
2017-12-04T03:44:49.158Z,7.67
2017-12-04T03:45:15.285Z,7.67
2017-12-04T03:45:41.400Z,7.72
2017-12-04T03:46:07.533Z,7.6
2017-12-04T03:46:33.654Z,7.63
2017-12-04T03:46:59.768Z,7.57
2017-12-04T03:47:25.888Z,7.66
2017-12-04T03:47:52.012Z,7.58
2017-12-04T03:48:18.124Z,7.56
2017-12-04T03:48:44.245Z,7.58
2017-12-04T03:49:10.368Z,7.67
2017-12-04T03:49:36.493Z,7.61
2017-12-04T03:50:02.616Z,7.7
2017-12-04T03:50:28.741Z,7.66
2017-12-04T03:50:54.862Z,7.67
2017-12-04T03:51:21.000Z,7.69
2017-12-04T03:51:47.122Z,7.72
2017-12-04T03:52:13.236Z,7.67
2017-12-04T03:52:39.351Z,7.72
2017-12-04T03:53:05.505Z,7.69
2017-12-04T03:53:31.624Z,7.63
2017-12-04T03:53:57.747Z,7.66
2017-12-04T03:54:23.864Z,7.67
2017-12-04T03:54:49.984Z,7.61
2017-12-04T03:55:16.112Z,7.54
2017-12-04T03:55:42.228Z,7.56
2017-12-04T03:56:08.350Z,7.51
2017-12-04T03:56:34.497Z,7.4
2017-12-04T03:57:00.617Z,7.42
2017-12-04T03:57:26.754Z,7.45
2017-12-04T03:57:52.873Z,7.5
2017-12-04T03:58:19.020Z,7.56
2017-12-04T03:58:45.138Z,7.43
2017-12-04T03:59:11.261Z,7.45
2017-12-04T03:59:37.381Z,7.51
2017-12-04T04:00:03.508Z,7.6
2017-12-04T04:00:29.628Z,7.53
2017-12-04T04:00:55.744Z,7.51
2017-12-04T04:01:21.869Z,7.61
2017-12-04T04:01:47.985Z,7.54
2017-12-04T04:02:14.106Z,7.58
2017-12-04T04:02:40.252Z,7.54
2017-12-04T04:03:06.375Z,7.53
2017-12-04T04:03:32.491Z,7.66
2017-12-04T04:03:58.610Z,7.67
2017-12-04T04:04:24.733Z,7.61
2017-12-04T04:04:50.852Z,7.67
2017-12-04T04:05:16.982Z,7.54
2017-12-04T04:05:43.100Z,7.58
2017-12-04T04:06:09.218Z,7.54
2017-12-04T04:06:35.345Z,7.5
2017-12-04T04:07:01.462Z,7.53
2017-12-04T04:07:27.582Z,7.48
2017-12-04T04:07:53.703Z,7.5
2017-12-04T04:08:19.821Z,7.53
2017-12-04T04:08:45.971Z,7.66
2017-12-04T04:09:12.094Z,7.67
2017-12-04T04:09:38.209Z,7.54
2017-12-04T04:10:04.331Z,7.54
2017-12-04T04:10:30.449Z,7.48
2017-12-04T04:10:56.567Z,7.51
2017-12-04T04:11:22.691Z,7.57
2017-12-04T04:11:48.801Z,7.48
2017-12-04T04:12:14.941Z,7.48
2017-12-04T04:12:41.060Z,7.5
2017-12-04T04:13:07.184Z,7.54
2017-12-04T04:13:33.301Z,7.57
2017-12-04T04:13:59.429Z,7.67
2017-12-04T04:14:25.551Z,7.72
2017-12-04T04:14:51.669Z,7.72
2017-12-04T04:15:17.788Z,7.67
2017-12-04T04:15:43.919Z,7.56
2017-12-04T04:16:10.035Z,7.66
2017-12-04T04:16:36.159Z,7.63
2017-12-04T04:17:02.283Z,7.56
2017-12-04T04:17:28.399Z,7.61
2017-12-04T04:17:54.517Z,7.69
2017-12-04T04:18:20.642Z,7.63
2017-12-04T04:18:46.759Z,7.69
2017-12-04T04:19:12.886Z,7.69
2017-12-04T04:19:39.029Z,7.73
2017-12-04T04:20:05.148Z,7.75
2017-12-04T04:20:31.271Z,7.57
2017-12-04T04:20:57.388Z,7.69
2017-12-04T04:21:23.508Z,7.58
2017-12-04T04:21:49.632Z,7.67
2017-12-04T04:22:15.757Z,7.72
2017-12-04T04:22:41.875Z,7.67
2017-12-04T04:23:07.989Z,7.7
2017-12-04T04:23:34.143Z,7.67
2017-12-04T04:24:00.266Z,7.7
2017-12-04T04:24:26.381Z,7.72
2017-12-04T04:24:52.500Z,7.66
2017-12-04T04:25:18.625Z,7.75
2017-12-04T04:25:44.752Z,7.72
2017-12-04T04:26:10.866Z,7.69
2017-12-04T04:26:36.985Z,7.72
2017-12-04T04:27:03.107Z,7.7
2017-12-04T04:27:29.250Z,7.79
2017-12-04T04:27:55.365Z,7.77
2017-12-04T04:28:21.487Z,7.75
2017-12-04T04:28:47.608Z,7.72
2017-12-04T04:29:13.729Z,7.69
2017-12-04T04:29:39.860Z,7.67
2017-12-04T04:30:05.978Z,7.7
2017-12-04T04:30:32.101Z,7.69
2017-12-04T04:30:58.220Z,7.76
2017-12-04T04:31:24.333Z,7.69
2017-12-04T04:31:50.460Z,7.69
2017-12-04T04:32:16.630Z,7.69
2017-12-04T04:32:42.702Z,7.66
2017-12-04T04:33:08.821Z,7.72
2017-12-04T04:33:34.937Z,7.75
2017-12-04T04:34:01.066Z,7.67
2017-12-04T04:34:27.182Z,7.7
2017-12-04T04:34:53.310Z,7.72
2017-12-04T04:35:19.423Z,7.72
2017-12-04T04:35:45.548Z,7.73
2017-12-04T04:36:11.664Z,7.67
2017-12-04T04:36:37.792Z,7.76
2017-12-04T04:37:03.912Z,7.83
2017-12-04T04:37:30.029Z,7.75
2017-12-04T04:37:56.144Z,7.72
2017-12-04T04:38:22.269Z,7.72
2017-12-04T04:38:48.414Z,7.69
2017-12-04T04:39:14.538Z,7.69
2017-12-04T04:39:40.658Z,7.72
2017-12-04T04:40:06.780Z,7.69
2017-12-04T04:40:32.898Z,7.66
2017-12-04T04:40:59.021Z,7.61
2017-12-04T04:41:25.138Z,7.66
2017-12-04T04:41:51.259Z,7.61
2017-12-04T04:42:17.371Z,7.54
2017-12-04T04:42:43.500Z,7.63
2017-12-04T04:43:09.623Z,7.66
2017-12-04T04:43:35.743Z,7.66
2017-12-04T04:44:01.868Z,7.63
2017-12-04T04:44:28.004Z,7.63
2017-12-04T04:44:54.132Z,7.67
2017-12-04T04:45:20.276Z,7.66
2017-12-04T04:45:46.409Z,7.67
2017-12-04T04:46:12.536Z,7.7
2017-12-04T04:46:38.644Z,7.67
2017-12-04T04:47:04.764Z,7.69
2017-12-04T04:47:30.913Z,7.6
2017-12-04T04:47:57.028Z,7.67
2017-12-04T04:48:23.148Z,7.66
2017-12-04T04:48:49.277Z,7.63
2017-12-04T04:49:15.402Z,7.58
2017-12-04T04:49:41.525Z,7.58
2017-12-04T04:50:07.641Z,7.7
2017-12-04T04:50:33.759Z,7.76
2017-12-04T04:50:59.883Z,7.66
2017-12-04T04:51:25.999Z,7.69
2017-12-04T04:51:52.120Z,7.7
2017-12-04T04:52:18.246Z,7.7
2017-12-04T04:52:44.359Z,7.69
2017-12-04T04:53:10.480Z,7.73
2017-12-04T04:53:36.599Z,7.66
2017-12-04T04:54:02.726Z,7.73
2017-12-04T04:54:28.845Z,7.72
2017-12-04T04:54:54.972Z,7.83
2017-12-04T04:55:21.094Z,7.88
2017-12-04T04:55:47.253Z,7.77
2017-12-04T04:56:13.379Z,7.85
2017-12-04T04:56:39.495Z,7.73
2017-12-04T04:57:05.616Z,7.69
2017-12-04T04:57:31.743Z,7.73
2017-12-04T04:57:57.867Z,7.72
2017-12-04T04:58:23.978Z,7.67
2017-12-04T04:58:50.099Z,7.69
2017-12-04T04:59:16.224Z,7.76
2017-12-04T04:59:42.360Z,7.67
2017-12-04T05:00:08.486Z,7.72
2017-12-04T05:00:34.608Z,7.85
2017-12-04T05:01:00.730Z,7.79
2017-12-04T05:01:26.868Z,7.67
2017-12-04T05:01:52.991Z,7.67
2017-12-04T05:02:19.109Z,7.69
2017-12-04T05:02:45.237Z,7.69
2017-12-04T05:03:11.363Z,7.69
2017-12-04T05:03:37.499Z,7.61
2017-12-04T05:04:03.624Z,7.7
2017-12-04T05:04:29.755Z,7.69
2017-12-04T05:04:55.887Z,7.7
2017-12-04T05:05:22.011Z,7.69
2017-12-04T05:05:48.123Z,7.73
2017-12-04T05:06:14.239Z,7.67
2017-12-04T05:06:40.365Z,7.66
2017-12-04T05:07:06.478Z,7.66
2017-12-04T05:07:32.607Z,7.58
2017-12-04T05:07:58.748Z,7.7
2017-12-04T05:08:24.874Z,7.72
2017-12-04T05:08:50.993Z,7.73
2017-12-04T05:09:17.130Z,7.75
2017-12-04T05:09:43.257Z,7.67
2017-12-04T05:10:09.382Z,7.67
2017-12-04T05:10:35.496Z,7.8
2017-12-04T05:11:01.624Z,7.67
2017-12-04T05:11:27.740Z,7.73
2017-12-04T05:11:53.855Z,7.72
2017-12-04T05:12:19.981Z,7.67
2017-12-04T05:12:46.120Z,7.75
2017-12-04T05:13:12.265Z,7.67
2017-12-04T05:13:38.382Z,7.72
2017-12-04T05:14:04.505Z,7.76
2017-12-04T05:14:30.676Z,7.87
2017-12-04T05:14:56.812Z,7.77
2017-12-04T05:15:22.928Z,7.87
2017-12-04T05:15:49.043Z,7.83
2017-12-04T05:16:15.162Z,7.77
2017-12-04T05:16:41.288Z,7.93
2017-12-04T05:17:07.406Z,7.77
2017-12-04T05:17:33.531Z,7.85
2017-12-04T05:17:59.675Z,7.73
2017-12-04T05:18:25.796Z,7.82
2017-12-04T05:18:51.919Z,7.83
2017-12-04T05:19:18.034Z,7.76
2017-12-04T05:19:44.161Z,7.83
2017-12-04T05:20:10.276Z,7.82
2017-12-04T05:20:36.395Z,7.83
2017-12-04T05:21:02.520Z,7.83
2017-12-04T05:21:28.645Z,7.95
2017-12-04T05:21:54.759Z,7.9
2017-12-04T05:22:20.878Z,7.98
2017-12-04T05:22:47.007Z,7.91
2017-12-04T05:23:13.122Z,7.95
2017-12-04T05:23:39.249Z,7.9
2017-12-04T05:24:05.372Z,7.94
2017-12-04T05:24:31.491Z,7.82
2017-12-04T05:24:57.615Z,7.79
2017-12-04T05:25:23.734Z,7.82
2017-12-04T05:25:49.855Z,7.82
2017-12-04T05:26:15.977Z,7.82
2017-12-04T05:26:42.091Z,7.67
2017-12-04T05:27:08.214Z,7.72
2017-12-04T05:27:34.335Z,7.83
2017-12-04T05:28:00.453Z,7.76
2017-12-04T05:28:26.572Z,7.73
2017-12-04T05:28:52.693Z,7.7
2017-12-04T05:29:18.818Z,7.73
2017-12-04T05:29:44.944Z,7.77
2017-12-04T05:30:11.066Z,7.79
2017-12-04T05:30:37.189Z,7.77
2017-12-04T05:31:03.314Z,7.69
2017-12-04T05:31:29.430Z,7.7
2017-12-04T05:31:55.551Z,7.72
2017-12-04T05:32:21.668Z,7.72
2017-12-04T05:32:47.788Z,7.83
2017-12-04T05:33:13.903Z,7.69
2017-12-04T05:33:40.031Z,7.7
2017-12-04T05:34:06.146Z,7.7
2017-12-04T05:34:32.288Z,7.85
2017-12-04T05:34:58.408Z,7.8
2017-12-04T05:35:24.532Z,7.82
2017-12-04T05:35:50.648Z,7.83
2017-12-04T05:36:16.771Z,7.87
2017-12-04T05:36:42.901Z,7.83
2017-12-04T05:37:09.011Z,7.77
2017-12-04T05:37:35.137Z,7.83
2017-12-04T05:38:01.260Z,7.83
2017-12-04T05:38:27.375Z,7.9
2017-12-04T05:38:53.494Z,7.87
2017-12-04T05:39:19.616Z,7.82
2017-12-04T05:39:45.739Z,7.7
2017-12-04T05:40:11.869Z,7.69
2017-12-04T05:40:37.983Z,7.83
2017-12-04T05:41:04.106Z,7.75
2017-12-04T05:41:30.226Z,7.87
2017-12-04T05:41:56.340Z,7.77
2017-12-04T05:42:22.492Z,7.85
2017-12-04T05:42:48.610Z,7.98
2017-12-04T05:43:14.722Z,7.93
2017-12-04T05:43:40.870Z,7.97
2017-12-04T05:44:06.987Z,7.93
2017-12-04T05:44:33.109Z,7.95
2017-12-04T05:44:59.232Z,7.94
2017-12-04T05:45:25.369Z,7.94
2017-12-04T05:45:51.489Z,7.9
2017-12-04T05:46:17.609Z,8.05
2017-12-04T05:46:43.732Z,7.95
2017-12-04T05:47:09.849Z,8
2017-12-04T05:47:35.977Z,7.87
2017-12-04T05:48:02.091Z,7.93
2017-12-04T05:48:28.219Z,7.95
2017-12-04T05:48:54.338Z,7.93
2017-12-04T05:49:20.461Z,7.83